createdAt,value
2018-11-26T00:00:35.497Z,90.80
2018-11-26T00:03:08.035Z,90.50
2018-11-26T00:05:37.826Z,90.60
2018-11-26T00:08:09.844Z,91.00
2018-11-26T00:10:49.834Z,90.60
2018-11-26T00:13:19.010Z,90.30
2018-11-26T00:15:48.151Z,90.30
2018-11-26T00:18:17.227Z,90.80
2018-11-26T00:20:46.383Z,90.70
2018-11-26T00:23:15.473Z,90.70
2018-11-26T00:25:44.576Z,90.80
2018-11-26T00:28:13.714Z,90.70
2018-11-26T00:30:42.785Z,90.70
2018-11-26T00:33:11.875Z,89.80
2018-11-26T00:35:41.042Z,90.30
2018-11-26T00:38:10.144Z,90.50
2018-11-26T00:40:39.190Z,90.70
2018-11-26T00:43:08.377Z,90.90
2018-11-26T00:45:37.437Z,90.60
2018-11-26T00:48:06.515Z,90.70
2018-11-26T00:50:35.614Z,90.70
2018-11-26T00:53:11.232Z,90.70
2018-11-26T00:55:40.385Z,91.00
2018-11-26T00:58:09.523Z,90.90
2018-11-26T01:00:38.553Z,90.80
2018-11-26T01:03:07.710Z,90.90
2018-11-26T01:05:39.394Z,91.00
2018-11-26T01:08:08.526Z,91.00
2018-11-26T01:10:37.665Z,91.00
2018-11-26T01:13:07.422Z,91.30
2018-11-26T01:15:36.884Z,91.00
2018-11-26T01:18:06.525Z,90.90
2018-11-26T01:20:35.611Z,91.10
2018-11-26T01:23:04.837Z,90.90
2018-11-26T01:25:34.062Z,90.90
2018-11-26T01:28:03.185Z,91.10
2018-11-26T01:30:32.583Z,90.90
2018-11-26T01:33:01.737Z,90.90
2018-11-26T01:35:30.828Z,91.30
2018-11-26T01:37:59.987Z,90.80
2018-11-26T01:40:34.192Z,90.70
2018-11-26T01:43:03.320Z,91.00
2018-11-26T01:45:32.345Z,91.10
2018-11-26T01:48:01.512Z,91.00
2018-11-26T01:50:30.651Z,91.20
2018-11-26T01:52:59.722Z,91.00
2018-11-26T01:55:28.849Z,91.00
2018-11-26T01:57:57.933Z,91.10
2018-11-26T02:00:27.823Z,90.80
2018-11-26T02:02:56.931Z,90.00
2018-11-26T02:05:26.055Z,90.50
2018-11-26T02:07:55.160Z,90.00
2018-11-26T02:10:24.265Z,89.70
2018-11-26T02:12:53.607Z,89.40
2018-11-26T02:15:33.468Z,90.60
2018-11-26T02:18:02.683Z,89.60
2018-11-26T02:20:32.101Z,90.30
2018-11-26T02:23:01.195Z,89.40
2018-11-26T02:25:30.873Z,89.70
2018-11-26T02:27:59.935Z,90.00
2018-11-26T02:30:29.050Z,89.60
2018-11-26T02:32:58.268Z,90.70
2018-11-26T02:35:27.359Z,90.50
2018-11-26T02:37:56.545Z,90.80
2018-11-26T02:40:32.970Z,90.70
2018-11-26T02:43:02.043Z,90.70
2018-11-26T02:45:31.110Z,90.50
2018-11-26T02:48:00.225Z,90.10
2018-11-26T02:50:29.376Z,89.80
2018-11-26T02:52:58.503Z,89.90
2018-11-26T02:55:27.622Z,90.30
2018-11-26T02:57:56.700Z,90.50
2018-11-26T03:00:25.789Z,90.60
2018-11-26T03:02:55.306Z,90.10
2018-11-26T03:05:29.216Z,89.90
2018-11-26T03:07:58.389Z,90.60
2018-11-26T03:10:27.515Z,90.70
2018-11-26T03:12:56.614Z,91.00
2018-11-26T03:15:26.142Z,90.40
2018-11-26T03:17:55.242Z,90.10
2018-11-26T03:20:24.314Z,90.40
2018-11-26T03:22:53.496Z,90.70
2018-11-26T03:25:22.546Z,90.60
2018-11-26T03:27:51.613Z,90.30
2018-11-26T03:30:21.954Z,90.90
2018-11-26T03:32:51.135Z,90.20
2018-11-26T03:35:20.177Z,89.30
2018-11-26T03:37:49.311Z,88.80
2018-11-26T03:40:18.447Z,88.10
2018-11-26T03:42:47.535Z,87.60
2018-11-26T03:45:18.458Z,87.70
2018-11-26T03:47:47.502Z,89.20
2018-11-26T03:50:16.677Z,89.30
2018-11-26T03:52:46.664Z,89.50
2018-11-26T03:55:15.767Z,88.70
2018-11-26T03:57:44.863Z,88.40
2018-11-26T04:00:16.310Z,88.00
2018-11-26T04:02:45.469Z,88.50
2018-11-26T04:05:14.568Z,88.00
2018-11-26T04:07:43.990Z,88.00
2018-11-26T04:10:13.908Z,87.30
2018-11-26T04:12:42.973Z,86.90
2018-11-26T04:15:15.156Z,85.30
2018-11-26T04:17:44.219Z,85.70
2018-11-26T04:20:13.312Z,85.10
2018-11-26T04:22:42.439Z,85.10
2018-11-26T04:25:11.569Z,85.00
2018-11-26T04:27:40.682Z,83.50
2018-11-26T04:30:12.502Z,81.00
2018-11-26T04:32:41.733Z,81.00
2018-11-26T04:35:11.101Z,81.30
2018-11-26T04:37:40.236Z,80.70
2018-11-26T04:40:10.467Z,79.30
2018-11-26T04:42:39.680Z,79.70
2018-11-26T04:45:10.084Z,79.40
2018-11-26T04:47:39.774Z,79.60
2018-11-26T04:50:10.542Z,80.00
2018-11-26T04:52:40.014Z,80.70
2018-11-26T04:55:10.427Z,80.20
2018-11-26T04:57:42.548Z,79.30
2018-11-26T05:00:10.490Z,78.90
2018-11-26T05:02:39.648Z,78.80
2018-11-26T05:05:09.796Z,79.10
2018-11-26T05:07:38.919Z,79.40
2018-11-26T05:10:12.233Z,79.20
2018-11-26T05:12:41.386Z,78.60
2018-11-26T05:15:12.637Z,79.50
2018-11-26T05:17:41.732Z,79.30
2018-11-26T05:20:12.106Z,78.20
2018-11-26T05:22:41.295Z,79.20
2018-11-26T05:25:11.156Z,80.70
2018-11-26T05:27:40.269Z,79.90
2018-11-26T05:30:12.499Z,78.80
2018-11-26T05:32:41.696Z,78.50
2018-11-26T05:35:11.844Z,78.70
2018-11-26T05:37:40.967Z,79.10
2018-11-26T05:40:11.411Z,78.60
2018-11-26T05:42:40.705Z,77.80
2018-11-26T05:45:12.297Z,78.10
2018-11-26T05:47:41.737Z,77.50
2018-11-26T05:50:12.975Z,78.20
2018-11-26T05:52:42.287Z,78.20
2018-11-26T05:55:13.451Z,77.70
2018-11-26T05:57:42.611Z,78.00
2018-11-26T06:00:17.403Z,77.20
2018-11-26T06:02:46.549Z,77.00
2018-11-26T06:05:15.631Z,77.60
2018-11-26T06:07:44.695Z,78.00
2018-11-26T06:10:13.865Z,77.90
2018-11-26T06:12:42.988Z,78.20
2018-11-26T06:15:13.370Z,78.70
2018-11-26T06:17:43.232Z,79.20
2018-11-26T06:20:13.173Z,79.70
2018-11-26T06:22:46.301Z,80.70
2018-11-26T06:25:19.428Z,81.10
2018-11-26T06:27:48.687Z,81.70
2018-11-26T06:30:18.909Z,82.80
2018-11-26T06:32:48.050Z,84.40
2018-11-26T06:35:18.424Z,86.30
2018-11-26T06:37:47.537Z,85.50
2018-11-26T06:40:16.734Z,86.30
2018-11-26T06:42:45.812Z,86.10
2018-11-26T06:45:18.054Z,87.00
2018-11-26T06:47:47.190Z,87.20
2018-11-26T06:50:17.442Z,88.00
2018-11-26T06:52:46.778Z,89.80
2018-11-26T06:55:18.879Z,89.50
2018-11-26T06:57:47.993Z,89.00
2018-11-26T07:00:18.173Z,88.70
2018-11-26T07:02:47.357Z,89.60
2018-11-26T07:05:21.578Z,90.20
2018-11-26T07:07:50.729Z,90.20
2018-11-26T07:10:20.832Z,90.40
2018-11-26T07:12:49.928Z,90.60
2018-11-26T07:15:20.659Z,90.80
2018-11-26T07:17:49.882Z,91.10
2018-11-26T07:20:20.004Z,91.10
2018-11-26T07:22:49.140Z,91.10
2018-11-26T07:25:19.879Z,91.10
2018-11-26T07:27:51.385Z,91.10
2018-11-26T07:30:21.596Z,91.20
2018-11-26T07:32:50.702Z,91.30
2018-11-26T07:35:19.846Z,91.80
2018-11-26T07:37:48.950Z,91.80
2018-11-26T07:40:19.314Z,91.60
2018-11-26T07:42:56.036Z,91.60
2018-11-26T07:45:25.140Z,91.40
2018-11-26T07:47:54.177Z,91.30
2018-11-26T07:50:23.252Z,91.30
2018-11-26T07:52:52.367Z,91.70
2018-11-26T07:55:22.180Z,91.60
2018-11-26T07:57:51.297Z,91.50
2018-11-26T08:00:21.307Z,91.50
2018-11-26T08:02:50.799Z,91.50
2018-11-26T08:05:21.025Z,91.40
2018-11-26T08:07:50.144Z,91.30
2018-11-26T08:10:22.240Z,91.30
2018-11-26T08:12:53.273Z,91.40
2018-11-26T08:15:23.497Z,91.50
2018-11-26T08:17:52.584Z,92.00
2018-11-26T08:20:21.655Z,91.90
2018-11-26T08:22:50.759Z,91.50
2018-11-26T08:25:21.239Z,91.80
2018-11-26T08:27:50.775Z,91.70
2018-11-26T08:30:23.965Z,91.70
2018-11-26T08:32:55.257Z,91.50
2018-11-26T08:35:24.422Z,91.40
2018-11-26T08:37:57.616Z,91.50
2018-11-26T08:40:29.997Z,91.70
2018-11-26T08:43:07.167Z,91.60
2018-11-26T08:45:37.211Z,91.60
2018-11-26T08:48:11.920Z,92.20
2018-11-26T08:50:41.065Z,91.80
2018-11-26T08:53:10.103Z,91.50
2018-11-26T08:55:39.192Z,91.80
2018-11-26T08:58:08.276Z,91.90
2018-11-26T09:00:37.411Z,91.90
2018-11-26T09:03:10.715Z,92.30
2018-11-26T09:05:44.997Z,91.60
2018-11-26T09:08:14.642Z,91.80
2018-11-26T09:10:43.733Z,92.00
2018-11-26T09:13:12.829Z,91.80
2018-11-26T09:15:42.107Z,91.60
2018-11-26T09:18:11.182Z,91.30
2018-11-26T09:20:40.271Z,91.00
2018-11-26T09:23:09.793Z,90.90
2018-11-26T09:25:38.899Z,90.70
2018-11-26T09:28:08.015Z,90.40
2018-11-26T09:30:37.156Z,90.20
2018-11-26T09:33:06.519Z,90.20
2018-11-26T09:35:35.614Z,90.20
2018-11-26T09:38:04.776Z,90.20
2018-11-26T09:40:33.971Z,90.10
2018-11-26T09:43:03.037Z,90.00
2018-11-26T09:45:32.213Z,90.00
2018-11-26T09:48:01.306Z,89.70
2018-11-26T09:50:30.379Z,89.70
2018-11-26T09:52:59.532Z,89.90
2018-11-26T09:55:28.594Z,89.90
2018-11-26T09:57:57.666Z,89.40
2018-11-26T10:00:26.771Z,89.60
2018-11-26T10:02:55.860Z,90.00
2018-11-26T10:05:25.962Z,89.80
2018-11-26T10:07:55.111Z,88.80
2018-11-26T10:10:30.611Z,88.20
2018-11-26T10:12:59.695Z,86.80
2018-11-26T10:15:29.094Z,86.10
2018-11-26T10:17:58.195Z,86.30
2018-11-26T10:20:27.328Z,86.60
2018-11-26T10:22:56.396Z,86.80
2018-11-26T10:25:25.439Z,86.60
2018-11-26T10:27:54.562Z,85.80
2018-11-26T10:30:24.462Z,85.20
2018-11-26T10:32:54.227Z,84.30
2018-11-26T10:35:23.420Z,83.50
2018-11-26T10:37:52.540Z,84.00
2018-11-26T10:40:23.829Z,83.70
2018-11-26T10:42:52.934Z,84.00
2018-11-26T10:45:22.903Z,83.70
2018-11-26T10:47:52.056Z,83.60
2018-11-26T10:50:22.737Z,83.20
2018-11-26T10:52:53.932Z,83.00
2018-11-26T10:55:38.192Z,82.90
2018-11-26T10:58:07.614Z,82.70
2018-11-26T11:00:39.585Z,82.50
2018-11-26T11:03:08.747Z,82.80
2018-11-26T11:05:38.290Z,82.90
2018-11-26T11:08:07.912Z,82.80
2018-11-26T11:10:37.062Z,82.20
2018-11-26T11:13:07.108Z,81.20
2018-11-26T11:15:36.469Z,80.80
2018-11-26T11:18:06.666Z,80.30
2018-11-26T11:20:35.982Z,80.20
2018-11-26T11:23:05.032Z,81.00
2018-11-26T11:25:34.161Z,80.60
2018-11-26T11:28:03.226Z,80.40
2018-11-26T11:30:32.346Z,80.80
2018-11-26T11:35:29.640Z,80.00
2018-11-26T11:37:58.725Z,79.80
2018-11-26T11:40:30.549Z,80.00
2018-11-26T11:43:00.427Z,79.20
2018-11-26T11:45:30.201Z,79.40
2018-11-26T11:47:59.301Z,79.20
2018-11-26T11:50:28.425Z,78.90
2018-11-26T11:52:57.775Z,79.20
2018-11-26T11:55:27.437Z,79.40
2018-11-26T11:57:56.511Z,78.80
2018-11-26T12:00:31.255Z,79.20
2018-11-26T12:03:01.032Z,79.30
2018-11-26T12:05:30.123Z,78.90
2018-11-26T12:07:59.283Z,78.60
2018-11-26T12:10:28.414Z,78.50
2018-11-26T12:12:57.528Z,78.20
2018-11-26T12:15:26.671Z,77.90
2018-11-26T12:17:55.756Z,77.80
2018-11-26T12:20:24.855Z,77.90
2018-11-26T12:22:54.018Z,78.20
2018-11-26T12:25:23.143Z,78.50
2018-11-26T12:27:52.212Z,78.30
2018-11-26T12:30:25.394Z,78.40
2018-11-26T12:32:54.536Z,78.60
2018-11-26T12:35:23.617Z,78.30
2018-11-26T12:37:52.996Z,78.20
2018-11-26T12:40:23.005Z,77.30
2018-11-26T12:42:53.406Z,75.30
2018-11-26T12:45:24.573Z,73.80
2018-11-26T12:47:53.729Z,72.50
2018-11-26T12:50:22.849Z,69.90
2018-11-26T12:52:51.907Z,68.40
2018-11-26T12:55:21.912Z,67.20
2018-11-26T12:57:51.737Z,64.50
2018-11-26T13:00:23.892Z,63.50
2018-11-26T13:02:55.086Z,63.70
2018-11-26T13:05:24.221Z,63.60
2018-11-26T13:07:53.359Z,65.20
2018-11-26T13:10:23.270Z,62.60
2018-11-26T13:12:52.821Z,65.00
2018-11-26T13:15:25.237Z,67.20
2018-11-26T13:17:54.397Z,67.80
2018-11-26T13:20:25.395Z,68.40
2018-11-26T13:22:54.881Z,68.30
2018-11-26T13:25:26.164Z,67.20
2018-11-26T13:27:56.418Z,67.80
2018-11-26T13:30:29.489Z,67.10
2018-11-26T13:33:00.737Z,66.50
2018-11-26T13:35:29.845Z,66.00
2018-11-26T13:37:58.996Z,65.20
2018-11-26T13:40:28.131Z,64.00
2018-11-26T13:42:57.220Z,66.60
2018-11-26T13:45:31.687Z,69.00
2018-11-26T13:48:00.778Z,70.80
2018-11-26T13:50:32.549Z,73.20
2018-11-26T13:53:01.736Z,74.60
2018-11-26T13:55:30.835Z,75.50
2018-11-26T13:57:59.953Z,77.00
2018-11-26T14:00:29.055Z,78.30
2018-11-26T14:02:58.156Z,79.30
2018-11-26T14:05:27.283Z,79.70
2018-11-26T14:07:56.387Z,79.60
2018-11-26T14:10:26.910Z,79.10
2018-11-26T14:13:02.312Z,79.50
2018-11-26T14:15:31.394Z,80.20
2018-11-26T14:18:00.460Z,81.40
2018-11-26T14:20:29.597Z,81.90
2018-11-26T14:22:58.685Z,82.80
2018-11-26T14:25:27.779Z,83.50
2018-11-26T14:27:56.958Z,84.10
2018-11-26T14:30:27.628Z,84.10
2018-11-26T14:32:56.978Z,84.20
2018-11-26T14:35:26.175Z,84.70
2018-11-26T14:37:57.673Z,85.00
2018-11-26T14:40:29.025Z,85.00
2018-11-26T14:42:58.223Z,85.20
2018-11-26T14:45:27.389Z,86.00
2018-11-26T14:47:56.505Z,86.60
2018-11-26T14:50:25.584Z,86.50
2018-11-26T14:52:54.722Z,87.30
2018-11-26T14:55:26.141Z,87.50
2018-11-26T14:57:55.207Z,88.80
2018-11-26T15:00:24.319Z,90.10
2018-11-26T15:02:53.416Z,90.10
2018-11-26T15:05:22.546Z,90.20
2018-11-26T15:07:51.664Z,90.30
2018-11-26T15:10:23.039Z,90.40
2018-11-26T15:12:52.187Z,90.60
2018-11-26T15:15:24.904Z,90.90
2018-11-26T15:17:54.050Z,90.70
2018-11-26T15:20:25.632Z,91.00
2018-11-26T15:22:55.747Z,91.00
2018-11-26T15:25:33.310Z,91.10
2018-11-26T15:28:10.585Z,91.00
2018-11-26T15:30:39.740Z,91.30
2018-11-26T15:33:09.176Z,91.70
2018-11-26T15:35:41.101Z,91.60
2018-11-26T15:38:10.232Z,91.70
2018-11-26T15:40:39.662Z,91.80
2018-11-26T15:43:08.542Z,91.70
2018-11-26T15:45:38.639Z,91.70
2018-11-26T15:48:10.473Z,91.70
2018-11-26T15:50:39.596Z,91.70
2018-11-26T15:53:09.539Z,91.80
2018-11-26T15:55:38.644Z,91.80
2018-11-26T15:58:08.752Z,92.00
2018-11-26T16:00:37.868Z,92.20
2018-11-26T16:03:07.316Z,92.40
2018-11-26T16:05:36.790Z,92.30
2018-11-26T16:08:10.116Z,92.50
2018-11-26T16:10:39.298Z,92.20
2018-11-26T16:13:09.468Z,92.00
2018-11-26T16:15:40.926Z,92.10
2018-11-26T16:18:13.624Z,92.00
2018-11-26T16:20:42.821Z,92.40
2018-11-26T16:23:12.185Z,92.30
2018-11-26T16:25:43.541Z,92.20
2018-11-26T16:28:16.288Z,92.30
2018-11-26T16:30:45.382Z,92.30
2018-11-26T16:33:14.451Z,92.50
2018-11-26T16:35:43.545Z,92.40
2018-11-26T16:38:13.388Z,92.60
2018-11-26T16:40:42.503Z,92.60
2018-11-26T16:43:11.674Z,92.40
2018-11-26T16:45:40.932Z,92.20
2018-11-26T16:48:10.002Z,92.20
2018-11-26T16:50:39.283Z,92.40
2018-11-26T16:53:09.021Z,92.00
2018-11-26T16:55:38.101Z,91.80
2018-11-26T16:58:07.458Z,91.90
2018-11-26T17:00:36.616Z,92.00
2018-11-26T17:03:06.041Z,92.10
2018-11-26T17:05:37.310Z,92.10
2018-11-26T17:08:10.547Z,91.80
2018-11-26T17:10:39.754Z,92.00
2018-11-26T17:13:08.993Z,92.00
2018-11-26T17:15:38.221Z,91.90
2018-11-26T17:18:08.229Z,91.90
2018-11-26T17:20:38.282Z,91.80
2018-11-26T17:23:07.893Z,91.90
2018-11-26T17:25:37.052Z,92.10
2018-11-26T17:28:06.609Z,92.10
2018-11-26T17:30:36.040Z,91.80
2018-11-26T17:33:06.386Z,91.70
2018-11-26T17:35:35.487Z,91.90
2018-11-26T17:38:04.618Z,92.20
2018-11-26T17:40:33.738Z,92.20
2018-11-26T17:43:02.800Z,92.20
2018-11-26T17:45:31.956Z,92.00
2018-11-26T17:48:01.430Z,91.90
2018-11-26T17:50:36.878Z,91.70
2018-11-26T17:53:08.127Z,91.70
2018-11-26T17:55:47.167Z,91.90
2018-11-26T17:58:16.470Z,91.90
2018-11-26T18:00:47.285Z,91.80
2018-11-26T18:03:16.440Z,91.60
2018-11-26T18:05:45.604Z,91.50
2018-11-26T18:08:16.395Z,92.00
2018-11-26T18:10:45.512Z,91.90
2018-11-26T18:13:14.614Z,92.10
2018-11-26T18:15:43.803Z,91.80
2018-11-26T18:18:16.342Z,91.90
2018-11-26T18:20:45.947Z,91.60
2018-11-26T18:23:15.099Z,91.90
2018-11-26T18:25:44.578Z,91.80
2018-11-26T18:28:15.064Z,91.90
2018-11-26T18:30:48.494Z,91.80
2018-11-26T18:33:17.651Z,92.00
2018-11-26T18:35:47.500Z,92.00
2018-11-26T18:38:16.722Z,91.90
2018-11-26T18:40:47.191Z,91.90
2018-11-26T18:43:16.268Z,92.00
2018-11-26T18:45:45.447Z,91.80
2018-11-26T18:48:15.616Z,91.90
2018-11-26T18:50:44.730Z,91.90
2018-11-26T18:53:13.781Z,91.90
2018-11-26T18:55:43.391Z,91.70
2018-11-26T18:58:12.535Z,91.60
2018-11-26T19:00:47.338Z,91.50
2018-11-26T19:03:21.396Z,91.90
2018-11-26T19:05:52.713Z,91.80
2018-11-26T19:08:21.789Z,91.60
2018-11-26T19:10:52.904Z,91.40
2018-11-26T19:13:26.095Z,91.30
2018-11-26T19:15:58.313Z,91.30
2018-11-26T19:18:27.725Z,91.30
2018-11-26T19:20:56.792Z,91.50
2018-11-26T19:23:26.033Z,91.70
2018-11-26T19:25:55.605Z,91.80
2018-11-26T19:28:24.710Z,91.80
2018-11-26T19:30:53.886Z,92.10
2018-11-26T19:33:23.026Z,91.60
2018-11-26T19:35:52.103Z,91.80
2018-11-26T19:38:21.190Z,92.10
2018-11-26T19:40:50.306Z,91.90
2018-11-26T19:43:19.453Z,92.00
2018-11-26T19:45:48.671Z,92.30
2018-11-26T19:48:17.893Z,92.40
2018-11-26T19:50:46.977Z,92.40
2018-11-26T19:53:16.107Z,91.70
2018-11-26T19:55:45.252Z,91.60
2018-11-26T19:58:14.419Z,91.60
2018-11-26T20:00:43.613Z,91.60
2018-11-26T20:03:15.448Z,91.30
2018-11-26T20:05:57.331Z,91.40
2018-11-26T20:08:26.400Z,91.10
2018-11-26T20:10:55.524Z,91.40
2018-11-26T20:13:24.680Z,91.90
2018-11-26T20:15:54.383Z,92.00
2018-11-26T20:18:28.339Z,91.60
2018-11-26T20:20:52.952Z,91.80
2018-11-26T20:23:22.057Z,91.60
2018-11-26T20:25:52.319Z,91.90
2018-11-26T20:28:21.045Z,91.60
2018-11-26T20:30:50.133Z,91.30
2018-11-26T20:33:19.327Z,91.60
2018-11-26T20:35:48.500Z,91.60
2018-11-26T20:38:17.726Z,91.60
2018-11-26T20:40:46.821Z,91.50
2018-11-26T20:43:16.492Z,91.20
2018-11-26T20:45:47.487Z,91.40
2018-11-26T20:48:16.670Z,92.00
2018-11-26T20:50:48.911Z,91.70
2018-11-26T20:53:18.761Z,91.50
2018-11-26T20:55:47.911Z,92.00
2018-11-26T20:58:17.161Z,91.70
2018-11-26T21:00:46.290Z,91.80
2018-11-26T21:03:15.380Z,91.60
2018-11-26T21:05:44.513Z,91.60
2018-11-26T21:08:14.115Z,91.90
2018-11-26T21:10:43.214Z,92.00
2018-11-26T21:13:16.782Z,92.30
2018-11-26T21:15:41.703Z,92.00
2018-11-26T21:18:12.212Z,92.00
2018-11-26T21:20:50.299Z,92.00
2018-11-26T21:23:26.009Z,91.90
2018-11-26T21:25:56.244Z,91.80
2018-11-26T21:28:25.359Z,91.50
2018-11-26T21:30:54.443Z,91.30
2018-11-26T21:33:23.578Z,91.50
2018-11-26T21:35:52.676Z,92.00
2018-11-26T21:38:21.785Z,92.20
2018-11-26T21:40:50.936Z,92.30
2018-11-26T21:43:20.064Z,92.30
2018-11-26T21:45:54.203Z,92.10
2018-11-26T21:48:23.334Z,92.10
2018-11-26T21:50:52.403Z,92.10
2018-11-26T21:53:21.536Z,92.10
2018-11-26T21:55:51.044Z,92.10
2018-11-26T21:58:20.302Z,91.40
2018-11-26T22:00:50.518Z,91.40
2018-11-26T22:03:19.654Z,91.80
2018-11-26T22:05:49.290Z,91.90
2018-11-26T22:08:18.567Z,91.60
2018-11-26T22:10:47.689Z,91.90
2018-11-26T22:13:19.105Z,91.80
2018-11-26T22:15:48.141Z,92.20
2018-11-26T22:18:17.435Z,92.40
2018-11-26T22:20:46.655Z,91.90
2018-11-26T22:23:15.767Z,92.10
2018-11-26T22:25:44.907Z,92.30
2018-11-26T22:28:14.058Z,91.80
2018-11-26T22:30:43.133Z,91.30
2018-11-26T22:33:12.211Z,91.40
2018-11-26T22:35:41.359Z,91.90
2018-11-26T22:38:10.453Z,91.80
2018-11-26T22:40:39.584Z,92.00
2018-11-26T22:43:08.777Z,92.00
2018-11-26T22:45:37.881Z,91.70
2018-11-26T22:48:10.165Z,91.60
2018-11-26T22:50:40.421Z,91.60
2018-11-26T22:53:09.980Z,91.80
2018-11-26T22:55:39.133Z,92.10
2018-11-26T22:58:10.491Z,92.00
2018-11-26T23:00:51.871Z,91.70
2018-11-26T23:03:23.107Z,91.70
2018-11-26T23:05:52.251Z,91.70
2018-11-26T23:08:21.278Z,91.90
2018-11-26T23:10:50.390Z,92.20
2018-11-26T23:13:20.410Z,91.60
2018-11-26T23:15:49.563Z,92.30
2018-11-26T23:18:18.838Z,92.10
2018-11-26T23:20:47.990Z,91.80
2018-11-26T23:23:17.094Z,91.60
2018-11-26T23:25:46.237Z,91.80
2018-11-26T23:28:15.342Z,92.10
2018-11-26T23:30:44.374Z,92.40
2018-11-26T23:33:13.527Z,92.40
2018-11-26T23:35:42.647Z,92.40
2018-11-26T23:38:11.762Z,92.50
2018-11-26T23:40:40.889Z,92.40
2018-11-26T23:43:10.232Z,92.20
2018-11-26T23:45:39.326Z,92.10
2018-11-26T23:48:08.443Z,91.90
2018-11-26T23:50:37.763Z,91.80
2018-11-26T23:53:07.363Z,92.20
2018-11-26T23:55:36.492Z,92.00
2018-11-26T23:58:05.631Z,92.10
